NZAA

Auckland International Airport

Auckland, New Zealand
METAR NZAA 211000Z AUTO 22018KT 9999 NCD 19/14 Q1012 NOSIG
Observed Flight Rules
Jan-21 @ 10:00 UTC (21 minutes ago) Visual Flight Rules
Wind Visibility Clouds
220° at 18 knots 10,000+ meters
  • Clear skies
Temperatures Readings
Current 19°C / 66°F
Dewpoint 14°C / 57°F
Humidity 73%
Altimeter 29.88" Hg
Pressure 1011.92 hPa
Elevation 6
METAR NZAA 211000Z AUTO 22018KT 9999 NCD 19/14 Q1012 NOSIG
Observed Flight Rules
Jan-21 @ 10:00 UTC
(21 minutes ago)
VFR
Wind Visibility
220° at 18 knots 10,000+ meters
Clouds
  • Clear skies
Temperature Dewpoint
19°C / 66°F 14°C / 57°F
Humidity Altimeter Pressure
73% 29.88" Hg 1011.92 hPa